Time;durP1;ratioP1;P1;durP2;ratioP2;P2;SDS_P1;SDS_P2;PMS_P1;PMS_P2;Temp;Humidity;BMP_temperature;BMP_pressure;BME280_temperature;BME280_humidity;BME280_pressure;Samples;Min_cycle;Max_cycle;Signal;HPM_P1;HPM_P2
2021/04/20 00:03:29;;;;;;;28.23;16.82;;;;;;;10.32;74.83;100754.09;5007096;58;1142947;-72
2021/04/20 00:08:36;;;;;;;35.77;18.63;;;;;;;10.29;74.49;100743.74;5007076;58;1143241;-73
2021/04/20 00:13:42;;;;;;;26.73;15.93;;;;;;;10.19;74.71;100736.49;5007661;58;1143055;-73
2021/04/20 00:18:47;;;;;;;20.57;12.90;;;;;;;9.95;74.80;100731.60;5007788;58;1143035;-72
2021/04/20 00:23:53;;;;;;;38.87;18.30;;;;;;;9.72;75.10;100731.94;5007358;58;1140970;-72
2021/04/20 00:28:59;;;;;;;59.17;29.67;;;;;;;9.67;75.78;100731.87;5012052;57;1141180;-70
2021/04/20 00:34:05;;;;;;;44.40;24.83;;;;;;;9.88;76.12;100724.61;5164421;56;1141214;-72
2021/04/20 00:39:11;;;;;;;43.43;21.87;;;;;;;9.85;75.46;100713.41;5164459;56;1141188;-70
2021/04/20 00:44:16;;;;;;;43.90;20.60;;;;;;;9.83;75.97;100725.41;5164211;56;1141165;-73
2021/04/20 00:55:06;;;;;;;35.67;19.27;;;;;;;10.08;76.53;100721.84;5164344;56;1140661;-73
2021/04/20 01:00:33;;;;;;;35.03;18.45;;;;;;;10.13;76.17;100720.19;5164054;56;1142777;-73
2021/04/20 01:05:57;;;;;;;33.60;19.07;;;;;;;10.30;76.56;100717.67;5164287;56;1143072;-72
2021/04/20 01:17:03;;;;;;;39.58;19.50;;;;;;;10.27;76.22;100716.57;5164153;56;1142684;-70
2021/04/20 01:22:11;;;;;;;31.90;17.93;;;;;;;10.29;75.83;100706.73;5163578;56;1142582;-71
2021/04/20 01:27:18;;;;;;;37.87;19.47;;;;;;;10.37;75.90;100709.67;5164112;56;1142670;-72
2021/04/20 01:32:25;;;;;;;35.80;19.10;;;;;;;10.28;75.52;100705.89;5163555;56;1142997;-70
2021/04/20 01:37:31;;;;;;;60.80;27.63;;;;;;;10.17;75.54;100701.36;5162030;56;1142810;-73
2021/04/20 01:42:37;;;;;;;45.73;24.77;;;;;;;10.05;75.96;100710.19;5162494;56;1143256;-70
2021/04/20 01:47:43;;;;;;;44.13;23.47;;;;;;;10.01;75.52;100701.27;5161984;56;1143021;-70
2021/04/20 01:52:49;;;;;;;38.40;21.47;;;;;;;9.98;75.87;100698.36;5162021;56;1142925;-72
2021/04/20 01:57:58;;;;;;;36.13;20.43;;;;;;;10.07;76.29;100705.64;5161926;56;1140838;-73
2021/04/20 02:03:04;;;;;;;33.30;19.63;;;;;;;10.10;76.19;100699.27;5161588;56;1142841;-71
2021/04/20 02:08:10;;;;;;;36.33;21.10;;;;;;;10.02;75.58;100701.63;5161547;56;1142807;-71
2021/04/20 02:13:17;;;;;;;38.63;18.83;;;;;;;9.90;75.88;100702.05;5161258;56;1143155;-73
2021/04/20 02:18:26;;;;;;;39.63;19.53;;;;;;;9.97;76.05;100711.68;5161579;56;1141020;-72
2021/04/20 02:23:31;;;;;;;74.00;28.63;;;;;;;9.94;75.49;100708.78;5161795;56;1141205;-72
2021/04/20 02:28:39;;;;;;;74.03;27.77;;;;;;;9.86;75.95;100700.09;5154586;56;1140947;-70
2021/04/20 02:33:45;;;;;;;65.00;27.87;;;;;;;9.87;75.92;100701.78;5072922;57;1140957;-72
2021/04/20 02:38:51;;;;;;;76.50;26.23;;;;;;;9.74;75.27;100702.77;5073119;57;1140991;-71
2021/04/20 02:43:57;;;;;;;67.90;24.27;;;;;;;9.72;75.54;100696.75;5073202;56;1140912;-71
2021/04/20 02:49:03;;;;;;;76.13;28.43;;;;;;;9.60;74.97;100688.39;5072762;57;1141074;-72
2021/04/20 02:54:11;;;;;;;47.60;21.37;;;;;;;9.41;75.46;100689.67;5072438;56;1140940;-70
2021/04/20 02:59:17;;;;;;;48.57;23.33;;;;;;;9.29;75.21;100693.17;5072154;57;1140975;-72
2021/04/20 03:04:23;;;;;;;46.77;23.07;;;;;;;9.11;75.65;100691.80;5072643;57;1141154;-72
2021/04/20 03:09:31;;;;;;;48.03;21.87;;;;;;;9.18;76.38;100690.41;5072189;57;1141284;-72
2021/04/20 03:14:37;;;;;;;33.40;19.10;;;;;;;9.27;76.16;100683.20;5071987;57;1150762;-73
2021/04/20 03:19:43;;;;;;;33.88;18.12;;;;;;;9.27;75.63;100686.31;5041633;57;1140952;-72
2021/04/20 03:25:05;;;;;;;37.50;17.98;;;;;;;9.34;76.35;100687.55;5072217;57;1140947;-71
2021/04/20 03:30:13;;;;;;;34.93;18.30;;;;;;;9.45;76.48;100687.67;5074326;56;1141293;-72
2021/04/20 03:35:34;;;;;;;55.37;25.43;;;;;;;9.45;75.85;100681.07;5159974;56;1141047;-71
2021/04/20 03:40:45;;;;;;;83.18;37.54;;;;;;;9.20;75.31;100681.07;5159749;56;1140983;-72
2021/04/20 03:45:55;;;;;;;96.95;41.08;;;;;;;9.15;76.01;100678.30;5159993;56;1141039;-72
2021/04/20 03:51:06;;;;;;;65.75;29.20;;;;;;;9.23;75.98;100672.95;5072859;56;1140978;-72
2021/04/20 03:56:14;;;;;;;72.00;31.30;;;;;;;9.06;75.60;100679.39;5072704;56;1140772;-72
2021/04/20 04:01:21;;;;;;;81.20;36.63;;;;;;;8.93;76.32;100681.18;5076045;56;1140873;-73
2021/04/20 04:06:28;;;;;;;77.63;33.87;;;;;;;9.03;77.10;100679.59;5076035;56;1140902;-71
2021/04/20 04:11:37;;;;;;;74.23;31.67;;;;;;;9.16;76.98;100681.78;5073577;56;1140737;-71
2021/04/20 04:16:46;;;;;;;58.38;27.15;;;;;;;9.06;76.19;100686.83;5073261;56;1141176;-72
2021/04/20 04:21:54;;;;;;;58.85;29.32;;;;;;;8.96;76.24;100679.19;5073112;56;1140989;-73
2021/04/20 04:27:02;;;;;;;43.77;22.73;;;;;;;8.91;76.59;100681.76;5072875;56;1140753;-74
2021/04/20 04:32:11;;;;;;;64.77;35.00;;;;;;;8.88;76.77;100682.80;5063473;56;1140768;-72
2021/04/20 04:37:18;;;;;;;69.77;31.13;;;;;;;8.84;76.98;100688.41;5059265;56;1140765;-72
2021/04/20 04:42:24;;;;;;;54.03;25.73;;;;;;;8.93;77.67;100695.22;4933551;57;1140774;-73
2021/04/20 04:47:32;;;;;;;44.23;21.13;;;;;;;8.85;77.13;100694.91;4949203;57;1140706;-73
2021/04/20 04:52:41;;;;;;;41.73;20.97;;;;;;;8.78;77.36;100699.73;4981949;58;1149497;-72
2021/04/20 04:57:51;;;;;;;33.18;18.25;;;;;;;8.72;77.46;100693.55;4981972;58;1140752;-72
2021/04/20 05:02:57;;;;;;;33.57;17.37;;;;;;;8.67;77.84;100699.62;4987042;57;1140610;-72
2021/04/20 05:08:03;;;;;;;25.80;16.83;;;;;;;8.57;78.78;100701.16;4982334;58;1140959;-73
2021/04/20 05:13:10;;;;;;;26.73;16.40;;;;;;;8.57;78.78;100701.16;4982423;58;1140523;-73
2021/04/20 05:18:16;;;;;;;28.40;16.90;;;;;;;8.58;79.36;100690.98;4982138;58;1140681;-72
2021/04/20 05:23:22;;;;;;;47.83;23.87;;;;;;;8.64;79.54;100701.13;4982220;58;1140518;-73
2021/04/20 05:28:28;;;;;;;43.20;21.40;;;;;;;8.75;79.83;100704.36;4982079;58;1140934;-71
2021/04/20 05:33:35;;;;;;;39.47;21.20;;;;;;;8.91;79.66;100701.54;4984040;57;1140736;-73
2021/04/20 05:38:42;;;;;;;29.70;18.20;;;;;;;9.10;79.66;100707.27;4969662;58;1140605;-72
2021/04/20 05:43:54;;;;;;;38.03;20.53;;;;;;;9.25;79.00;100709.32;5103366;56;1141060;-71
2021/04/20 05:49:00;;;;;;;32.43;17.33;;;;;;;9.36;79.19;100711.58;5112848;56;1141356;-71
2021/04/20 05:54:06;;;;;;;29.47;16.63;;;;;;;9.45;78.42;100698.23;5175018;55;1141118;-73
2021/04/20 05:59:17;;;;;;;28.10;15.77;;;;;;;9.55;78.39;100705.02;5174471;56;1140961;-72
2021/04/20 06:04:24;;;;;;;29.77;18.23;;;;;;;9.73;77.97;100704.57;5174181;55;1141006;-71
2021/04/20 06:09:30;;;;;;;36.47;20.23;;;;;;;9.73;77.53;100703.25;5174253;56;1140987;-73
2021/04/20 06:14:35;;;;;;;35.63;19.37;;;;;;;9.91;78.42;100701.09;5119665;56;1140996;-71
2021/04/20 06:19:42;;;;;;;34.50;19.17;;;;;;;10.06;78.08;100703.11;5088965;56;1140936;-72
2021/04/20 06:24:48;;;;;;;42.15;20.88;;;;;;;10.19;77.97;100695.52;5148738;56;1142945;-71
2021/04/20 06:29:55;;;;;;;38.23;19.77;;;;;;;10.27;77.56;100694.95;5161067;56;1143070;-69
2021/04/20 06:35:01;;;;;;;43.63;22.20;;;;;;;10.38;77.36;100693.70;5160685;56;1143234;-72
2021/04/20 06:40:11;;;;;;;42.50;19.90;;;;;;;10.48;77.61;100699.14;5070216;56;1143334;-71
2021/04/20 06:45:24;;;;;;;32.87;20.27;;;;;;;10.46;76.60;100690.47;5068814;56;1143237;-74
2021/04/20 06:50:33;;;;;;;54.13;24.73;;;;;;;10.55;77.42;100689.30;5081018;57;1143081;-73
2021/04/20 06:55:55;;;;;;;36.85;18.98;;;;;;;10.76;77.52;100688.17;5076224;57;1143177;-73
2021/04/20 07:01:03;;;;;;;43.50;21.37;;;;;;;10.98;76.67;100696.66;5076504;57;1143186;-73
2021/04/20 07:06:28;;;;;;;35.37;19.67;;;;;;;11.04;76.67;100683.42;5060103;56;1143072;-74
2021/04/20 07:11:35;;;;;;;37.63;20.87;;;;;;;11.18;76.94;100688.48;5015608;57;1143087;-70
2021/04/20 07:16:51;;;;;;;37.17;22.57;;;;;;;11.45;77.44;100679.74;5066073;56;1143112;-73
2021/04/20 07:22:24;;;;;;;34.63;20.37;;;;;;;11.82;77.49;100675.51;5082125;56;1143080;-73
2021/04/20 07:28:02;;;;;;;30.33;18.13;;;;;;;12.12;77.07;100670.38;5067040;57;1143062;-73
2021/04/20 07:33:32;;;;;;;34.25;18.45;;;;;;;12.23;75.92;100673.47;5048120;57;1142967;-72
2021/04/20 07:38:59;;;;;;;29.63;19.10;;;;;;;12.38;75.40;100671.36;5077119;56;1142928;-72
2021/04/20 07:44:30;;;;;;;34.23;19.93;;;;;;;12.47;75.38;100670.13;5082258;56;1143320;-72
2021/04/20 07:49:52;;;;;;;30.67;18.60;;;;;;;12.76;76.53;100671.67;5075394;56;1143032;-71
2021/04/20 07:55:20;;;;;;;27.70;17.30;;;;;;;13.18;76.36;100669.02;5058420;56;1143395;-72
2021/04/20 08:00:35;;;;;;;27.27;17.03;;;;;;;13.58;76.48;100665.92;5066342;56;1142911;-72
2021/04/20 08:05:51;;;;;;;24.93;14.87;;;;;;;13.82;74.28;100656.26;5000630;56;1143065;-71
2021/04/20 08:11:09;;;;;;;22.80;12.57;;;;;;;13.87;73.60;100652.71;5130264;56;1142855;-72
2021/04/20 08:16:28;;;;;;;14.47;10.10;;;;;;;13.99;72.12;100644.96;5033777;56;1143387;-73
2021/04/20 08:21:38;;;;;;;24.20;11.83;;;;;;;14.12;72.08;100637.20;4872050;59;1143281;-72
2021/04/20 08:26:54;;;;;;;17.87;11.50;;;;;;;14.35;71.17;100642.12;4849222;59;1143559;-73
2021/04/20 08:32:06;;;;;;;19.37;12.70;;;;;;;14.41;69.60;100638.92;4849793;59;1142913;-72
2021/04/20 08:37:16;;;;;;;24.50;12.50;;;;;;;14.51;69.79;100640.75;4845625;59;1142772;-73
2021/04/20 08:42:35;;;;;;;20.27;12.60;;;;;;;14.66;68.78;100636.67;4855850;59;1142840;-72
2021/04/20 08:47:49;;;;;;;16.32;10.63;;;;;;;14.77;69.49;100625.86;4878563;59;1142790;-74
2021/04/20 08:53:32;;;;;;;19.52;11.73;;;;;;;15.06;69.21;100619.12;4864000;59;1142750;-70
2021/04/20 08:58:45;;;;;;;14.40;11.43;;;;;;;15.21;68.09;100620.81;4931180;57;1142719;-73
2021/04/20 09:04:18;;;;;;;18.03;12.40;;;;;;;15.29;66.40;100616.91;5043705;57;1142965;-72
2021/04/20 09:09:28;;;;;;;15.10;10.60;;;;;;;15.44;67.61;100619.44;4853511;59;1143627;-73
2021/04/20 09:14:41;;;;;;;14.13;9.80;;;;;;;15.62;66.73;100613.70;4837119;59;1143538;-72
2021/04/20 09:20:00;;;;;;;14.28;9.63;;;;;;;15.73;64.84;100614.01;4830200;60;1141209;-71
2021/04/20 09:25:13;;;;;;;16.60;10.53;;;;;;;15.83;64.61;100610.77;4833335;59;1141271;-73
2021/04/20 09:30:22;;;;;;;17.10;8.83;;;;;;;15.92;64.58;100605.85;4832033;59;1143263;-72
2021/04/20 09:35:29;;;;;;;16.13;9.17;;;;;;;16.09;63.05;100597.52;4880414;59;1141156;-72
2021/04/20 09:40:35;;;;;;;18.07;10.00;;;;;;;16.24;64.07;100601.33;4875895;59;1141068;-71
2021/04/20 09:45:47;;;;;;;10.53;8.13;;;;;;;16.47;64.07;100599.03;4917185;57;1143017;-72
2021/04/20 09:51:24;;;;;;;12.23;7.83;;;;;;;16.68;61.79;100599.53;5032147;57;1140928;-71
2021/04/20 09:56:43;;;;;;;13.50;7.20;;;;;;;16.58;59.08;100602.78;5013895;57;1141185;-72
2021/04/20 10:02:24;;;;;;;10.40;7.03;;;;;;;16.57;59.63;100594.92;5025093;57;1140958;-71
2021/04/20 10:08:24;;;;;;;13.37;8.90;;;;;;;16.61;57.19;100591.79;5037269;57;1141089;-72
2021/04/20 10:13:41;;;;;;;12.53;7.73;;;;;;;16.74;58.23;100584.73;4934034;59;1140761;-74
2021/04/20 10:18:53;;;;;;;12.07;7.13;;;;;;;16.88;58.15;100586.32;4979213;57;1140648;-75
2021/04/20 10:24:22;;;;;;;15.63;7.23;;;;;;;16.95;57.84;100577.19;5014115;57;1140721;-75
2021/04/20 10:29:45;;;;;;;8.23;5.77;;;;;;;17.09;54.60;100578.42;5019854;57;1140987;-76
2021/04/20 10:34:53;;;;;;;13.37;6.93;;;;;;;17.25;54.41;100573.66;5038263;57;1138707;-76
2021/04/20 10:40:01;;;;;;;8.35;6.10;;;;;;;17.44;55.10;100567.53;5048574;57;1141254;-72
2021/04/20 10:45:09;;;;;;;11.33;5.87;;;;;;;17.65;55.80;100564.95;5107941;56;1138999;-75
2021/04/20 10:50:30;;;;;;;11.10;5.77;;;;;;;17.73;55.18;100561.78;5095306;56;1141205;-72
2021/04/20 10:55:40;;;;;;;8.53;5.40;;;;;;;17.77;53.28;100554.28;5123734;56;1141148;-73
2021/04/20 11:00:50;;;;;;;8.43;5.47;;;;;;;17.71;50.57;100550.94;5153787;56;1139095;-76
2021/04/20 11:05:56;;;;;;;10.63;5.10;;;;;;;17.68;50.85;100549.92;5136327;56;1139164;-74
2021/04/20 11:11:02;;;;;;;9.83;4.78;;;;;;;17.87;50.87;100533.05;5102315;56;1140603;-73
2021/04/20 11:16:12;;;;;;;6.40;5.13;;;;;;;18.06;51.67;100533.73;5088827;57;1138430;-75
2021/04/20 11:21:24;;;;;;;8.03;4.70;;;;;;;18.17;51.42;100527.56;5094947;56;1139217;-73
2021/04/20 11:26:37;;;;;;;11.70;4.50;;;;;;;18.34;51.05;100520.33;5116089;56;1138837;-73
2021/04/20 11:31:50;;;;;;;4.25;3.42;;;;;;;18.61;50.81;100514.65;5111846;56;1140935;-74
2021/04/20 11:37:04;;;;;;;8.15;4.75;;;;;;;18.85;49.91;100512.39;5083345;56;1138939;-75
2021/04/20 11:42:17;;;;;;;6.97;4.72;;;;;;;19.02;48.47;100500.27;5069098;56;1138902;-74
2021/04/20 11:47:23;;;;;;;12.10;5.42;;;;;;;19.12;47.51;100491.50;5095341;56;1138832;-73
2021/04/20 11:52:33;;;;;;;22.50;4.95;;;;;;;19.25;47.73;100482.39;5077757;57;1141017;-73
2021/04/20 11:57:42;;;;;;;6.28;4.53;;;;;;;19.38;47.32;100480.50;5084726;56;1141138;-72
2021/04/20 12:02:50;;;;;;;10.00;4.65;;;;;;;19.52;47.68;100482.45;5088378;56;1139104;-73
2021/04/20 12:07:56;;;;;;;6.07;3.30;;;;;;;19.63;46.93;100485.55;5088387;56;1147852;-74
2021/04/20 12:13:03;;;;;;;6.77;3.70;;;;;;;19.77;44.53;100480.41;5078370;57;1138439;-75
2021/04/20 12:18:10;;;;;;;8.73;4.83;;;;;;;19.90;44.49;100478.80;5087398;56;1138671;-72
2021/04/20 12:23:19;;;;;;;3.80;3.42;;;;;;;20.11;45.97;100470.07;5087485;56;1138544;-73
2021/04/20 12:28:26;;;;;;;5.95;4.20;;;;;;;20.22;44.06;100459.38;5087839;57;1138623;-73
2021/04/20 12:33:35;;;;;;;5.25;3.58;;;;;;;20.25;44.47;100465.23;5072246;56;1138624;-75
2021/04/20 12:38:41;;;;;;;8.18;4.00;;;;;;;20.26;41.01;100460.70;5087402;57;1138597;-74
2021/04/20 12:43:51;;;;;;;14.33;7.70;;;;;;;20.00;40.19;100470.52;5034948;57;1138648;-74
2021/04/20 12:49:01;;;;;;;12.60;6.62;;;;;;;19.85;42.58;100465.10;5134105;56;1140688;-74
2021/04/20 12:54:11;;;;;;;14.60;4.20;;;;;;;19.65;44.18;100467.42;5133850;56;1140714;-75
2021/04/20 12:59:23;;;;;;;8.40;3.37;;;;;;;19.59;44.55;100467.30;5089329;56;1140476;-74
2021/04/20 13:04:38;;;;;;;13.05;4.62;;;;;;;19.36;42.63;100467.26;5107581;56;1138453;-75
2021/04/20 13:09:44;;;;;;;3.92;3.25;;;;;;;19.01;41.84;100457.05;5035991;56;1140750;-75
2021/04/20 13:14:51;;;;;;;7.20;3.20;;;;;;;18.59;42.91;100465.77;5038887;56;1138940;-75
2021/04/20 13:20:12;;;;;;;9.00;5.33;;;;;;;18.43;42.01;100460.92;5123950;56;1138699;-75
2021/04/20 13:25:21;;;;;;;6.97;3.60;;;;;;;18.27;43.64;100457.27;5108951;56;1138718;-75
2021/04/20 13:30:28;;;;;;;7.73;3.50;;;;;;;18.23;44.37;100449.23;5110750;56;1138774;-74
2021/04/20 13:35:36;;;;;;;6.00;3.10;;;;;;;18.10;43.38;100442.73;5123583;56;1138961;-75
2021/04/20 13:40:42;;;;;;;7.17;4.30;;;;;;;18.04;43.46;100452.77;5106461;56;1138581;-75
2021/04/20 13:45:52;;;;;;;10.87;4.33;;;;;;;18.01;44.48;100443.27;5020638;56;1139094;-76
2021/04/20 13:50:57;;;;;;;9.23;3.70;;;;;;;18.02;43.09;100439.58;5023023;57;1141086;-74
2021/04/20 13:56:10;;;;;;;8.65;4.40;;;;;;;17.99;43.76;100438.58;5005406;57;1138931;-74
2021/04/20 14:01:19;;;;;;;7.35;3.37;;;;;;;17.95;44.29;100437.23;5027907;57;1139020;-74
2021/04/20 14:06:25;;;;;;;6.37;4.30;;;;;;;17.93;42.82;100432.55;5053560;56;1139146;-74
2021/04/20 14:11:46;;;;;;;7.20;3.53;;;;;;;17.83;43.50;100431.89;4994385;57;1138934;-76
2021/04/20 14:16:56;;;;;;;6.28;3.66;;;;;;;17.74;43.46;100432.38;4912773;58;1139424;-74
2021/04/20 14:22:08;;;;;;;4.67;3.58;;;;;;;17.76;44.67;100426.87;4955493;58;1138987;-75
2021/04/20 14:27:14;;;;;;;6.47;3.10;;;;;;;17.72;43.88;100425.02;4949605;58;1139212;-74
2021/04/20 14:32:21;;;;;;;9.43;3.10;;;;;;;17.77;43.76;100425.36;4935848;58;1139022;-75
2021/04/20 14:37:28;;;;;;;14.00;4.83;;;;;;;17.88;43.53;100420.17;4966088;57;1139482;-74
2021/04/20 14:42:35;;;;;;;9.53;5.37;;;;;;;17.85;43.95;100418.69;4839359;59;1141678;-77
2021/04/20 14:47:41;;;;;;;18.97;15.27;;;;;;;17.78;43.44;100421.69;4861464;57;1139454;-76
2021/04/20 14:52:50;;;;;;;21.13;15.70;;;;;;;17.69;43.59;100424.55;4908465;57;1143517;-76
2021/04/20 14:57:58;;;;;;;5.47;3.02;;;;;;;17.56;43.78;100435.21;5052889;56;1143378;-74
2021/04/20 15:03:07;;;;;;;4.87;3.00;;;;;;;17.41;45.60;100415.98;5094436;56;1138965;-73
2021/04/20 15:08:16;;;;;;;7.97;6.40;;;;;;;17.41;45.60;100415.98;5098439;56;1138504;-74
2021/04/20 15:13:46;;;;;;;12.07;5.73;;;;;;;17.53;45.87;100418.16;5058966;56;1138464;-74
2021/04/20 15:19:08;;;;;;;10.37;4.30;;;;;;;17.53;45.07;100397.27;5065583;56;1140706;-73
2021/04/20 15:24:20;;;;;;;8.77;3.57;;;;;;;17.55;43.96;100397.94;5070609;57;1141084;-73
2021/04/20 15:29:33;;;;;;;5.45;3.40;;;;;;;17.66;44.51;100398.96;4987034;56;1138921;-73
2021/04/20 15:34:42;;;;;;;6.20;4.17;;;;;;;17.73;43.79;100402.63;5070907;56;1138641;-73
2021/04/20 15:39:51;;;;;;;6.83;3.40;;;;;;;17.86;43.84;100400.30;5070845;56;1138595;-75
2021/04/20 15:44:58;;;;;;;5.97;3.93;;;;;;;17.90;43.27;100396.75;5058729;57;1138935;-75
2021/04/20 15:50:06;;;;;;;4.47;3.65;;;;;;;17.80;43.31;100400.13;5070293;57;1139058;-77
2021/04/20 15:55:18;;;;;;;6.90;4.10;;;;;;;17.71;42.53;100403.31;5066219;57;1139163;-75
2021/04/20 16:00:34;;;;;;;5.03;3.20;;;;;;;17.59;43.48;100402.76;5082010;57;1139055;-76
2021/04/20 16:05:42;;;;;;;4.80;3.87;;;;;;;17.48;42.63;100404.94;5083844;56;1139282;-75
2021/04/20 16:10:57;;;;;;;7.73;5.00;;;;;;;17.29;44.35;100403.41;5056230;57;1138855;-74
2021/04/20 16:16:16;;;;;;;9.40;4.83;;;;;;;17.15;45.11;100400.88;5053958;57;1138982;-77
2021/04/20 16:21:25;;;;;;;10.53;8.13;;;;;;;17.05;46.30;100392.19;5053359;57;1138954;-77
2021/04/20 16:26:32;;;;;;;8.93;4.70;;;;;;;16.93;46.62;100384.65;5049840;57;1140909;-76
2021/04/20 16:31:42;;;;;;;8.07;4.87;;;;;;;16.80;47.40;100385.12;5042561;56;1139094;-75
2021/04/20 16:36:52;;;;;;;22.73;4.80;;;;;;;16.63;47.76;100382.05;5025979;56;1138898;-76
2021/04/20 16:42:24;;;;;;;11.28;5.87;;;;;;;16.41;48.04;100378.08;5088100;56;1141426;-76
